createdAt,value
2023-05-22T00:01:32.799Z,16.41
2023-05-22T00:04:02.973Z,16.39
2023-05-22T00:06:34.186Z,16.38
2023-05-22T00:09:06.844Z,16.37
2023-05-22T00:11:37.144Z,16.38
2023-05-22T00:14:06.900Z,16.39
2023-05-22T00:16:36.677Z,16.44
2023-05-22T00:19:07.386Z,16.45
2023-05-22T00:21:37.748Z,16.48
2023-05-22T00:24:10.672Z,16.50
2023-05-22T00:26:40.487Z,16.51
2023-05-22T00:29:11.004Z,16.52
2023-05-22T00:31:40.812Z,16.52
2023-05-22T00:34:10.739Z,16.51
2023-05-22T00:36:40.613Z,16.50
2023-05-22T00:39:13.180Z,16.50
2023-05-22T00:41:43.009Z,16.49
2023-05-22T00:44:13.060Z,16.48
2023-05-22T00:46:43.427Z,16.46
2023-05-22T00:49:13.246Z,16.42
2023-05-22T00:51:43.026Z,16.39
2023-05-22T00:54:15.712Z,16.36
2023-05-22T00:56:45.651Z,16.30
2023-05-22T00:59:15.894Z,16.26
2023-05-22T01:01:45.792Z,16.21
2023-05-22T01:04:18.660Z,16.16
2023-05-22T01:06:49.631Z,16.11
2023-05-22T01:09:21.990Z,16.05
2023-05-22T01:11:58.705Z,16.01
2023-05-22T01:14:34.913Z,15.98
2023-05-22T01:17:10.100Z,15.96
2023-05-22T01:20:01.753Z,15.98
2023-05-22T01:23:02.935Z,15.96
2023-05-22T01:25:55.815Z,15.96
2023-05-22T01:28:40.214Z,15.93
2023-05-22T01:31:13.461Z,15.90
2023-05-22T01:33:49.424Z,15.83
2023-05-22T01:36:22.647Z,15.80
2023-05-22T01:38:52.952Z,15.74
2023-05-22T01:41:23.498Z,15.70
2023-05-22T01:43:53.319Z,15.66
2023-05-22T01:46:28.399Z,15.60
2023-05-22T01:48:58.332Z,15.54
2023-05-22T01:51:44.238Z,15.50
2023-05-22T01:54:20.236Z,15.44
2023-05-22T01:56:52.048Z,15.40
2023-05-22T01:59:26.759Z,15.37
2023-05-22T02:01:59.367Z,15.36
2023-05-22T02:04:30.290Z,15.34
2023-05-22T02:07:01.228Z,15.35
2023-05-22T02:09:32.899Z,15.36
2023-05-22T02:12:03.752Z,15.37
2023-05-22T02:14:34.719Z,15.39
2023-05-22T02:17:08.972Z,15.43
2023-05-22T02:19:38.932Z,15.48
2023-05-22T02:22:10.078Z,15.50
2023-05-22T02:24:40.222Z,15.53
2023-05-22T02:27:10.323Z,15.53
2023-05-22T02:29:40.146Z,15.54
2023-05-22T02:32:12.643Z,15.56
2023-05-22T02:34:42.396Z,15.56
2023-05-22T02:37:13.339Z,15.57
2023-05-22T02:39:43.686Z,15.59
2023-05-22T02:42:13.436Z,15.59
2023-05-22T02:44:43.208Z,15.61
2023-05-22T02:47:15.705Z,15.62
2023-05-22T02:49:45.584Z,15.63
2023-05-22T02:52:15.473Z,15.62
2023-05-22T02:54:45.311Z,15.62
2023-05-22T02:57:15.279Z,15.63
2023-05-22T02:59:45.039Z,15.64
2023-05-22T03:02:19.913Z,15.64
2023-05-22T03:04:51.334Z,15.64
2023-05-22T03:07:21.640Z,15.62
2023-05-22T03:09:51.476Z,15.60
2023-05-22T03:12:21.319Z,15.56
2023-05-22T03:14:51.139Z,15.51
2023-05-22T03:17:23.513Z,15.47
2023-05-22T03:19:53.353Z,15.42
2023-05-22T03:22:23.382Z,15.37
2023-05-22T03:24:53.660Z,15.32
2023-05-22T03:27:23.478Z,15.26
2023-05-22T03:29:53.313Z,15.21
2023-05-22T03:32:27.018Z,15.16
2023-05-22T03:34:57.080Z,15.11
2023-05-22T03:37:26.866Z,15.07
2023-05-22T03:39:56.766Z,15.02
2023-05-22T03:42:32.767Z,14.96
2023-05-22T03:45:02.845Z,14.94
2023-05-22T03:47:35.423Z,14.91
2023-05-22T03:50:06.148Z,14.86
2023-05-22T03:52:36.013Z,14.85
2023-05-22T03:55:08.073Z,14.83
2023-05-22T03:57:37.839Z,14.81
2023-05-22T04:00:10.053Z,14.80
2023-05-22T04:02:47.050Z,14.80
2023-05-22T04:05:17.508Z,14.81
2023-05-22T04:07:47.362Z,14.82
2023-05-22T04:10:17.114Z,14.83
2023-05-22T04:12:46.877Z,14.86
2023-05-22T04:15:16.583Z,14.87
2023-05-22T04:17:50.177Z,14.89
2023-05-22T04:20:22.392Z,14.92
2023-05-22T04:22:54.561Z,14.94
2023-05-22T04:25:24.393Z,14.97
2023-05-22T04:27:55.728Z,15.02
2023-05-22T04:30:25.863Z,15.09
2023-05-22T04:32:58.252Z,15.13
2023-05-22T04:35:29.767Z,15.19
2023-05-22T04:38:02.339Z,15.25
2023-05-22T04:40:33.872Z,15.31
2023-05-22T04:43:03.735Z,15.38
2023-05-22T04:45:33.863Z,15.46
2023-05-22T04:48:06.518Z,15.53
2023-05-22T04:50:39.162Z,15.61
2023-05-22T04:53:09.573Z,15.70
2023-05-22T04:55:40.077Z,15.80
2023-05-22T04:58:13.366Z,15.90
2023-05-22T05:00:43.496Z,15.99
2023-05-22T05:03:16.107Z,16.10
2023-05-22T05:05:46.393Z,16.18
2023-05-22T05:08:16.255Z,16.27
2023-05-22T05:10:46.143Z,16.36
2023-05-22T05:13:16.011Z,16.45
2023-05-22T05:15:48.075Z,16.54
2023-05-22T05:18:20.446Z,16.64
2023-05-22T05:20:51.807Z,16.74
2023-05-22T05:23:22.589Z,16.83
2023-05-22T05:25:52.404Z,16.92
2023-05-22T05:28:23.283Z,17.04
2023-05-22T05:30:53.256Z,17.14
2023-05-22T05:33:44.140Z,17.26
2023-05-22T05:36:34.480Z,17.39
2023-05-22T05:39:04.500Z,17.49
2023-05-22T05:41:37.384Z,17.59
2023-05-22T05:44:11.228Z,17.71
2023-05-22T05:46:41.425Z,17.77
2023-05-22T05:49:14.305Z,17.85
2023-05-22T05:51:45.222Z,17.90
2023-05-22T05:54:15.104Z,17.99
2023-05-22T05:56:44.907Z,18.14
2023-05-22T05:59:14.965Z,18.32
2023-05-22T06:02:00.662Z,18.50
2023-05-22T06:04:37.136Z,18.67
2023-05-22T06:07:08.101Z,18.84
2023-05-22T06:09:42.611Z,19.03
2023-05-22T06:12:38.842Z,19.35
2023-05-22T06:15:10.559Z,19.66
2023-05-22T06:17:40.515Z,19.94
2023-05-22T06:20:17.200Z,20.14
2023-05-22T06:22:47.011Z,20.29
2023-05-22T06:25:16.842Z,20.40
2023-05-22T06:27:47.534Z,20.45
2023-05-22T06:30:31.853Z,20.54
2023-05-22T06:33:10.489Z,20.60
2023-05-22T06:35:43.395Z,20.58
2023-05-22T06:38:13.330Z,20.56
2023-05-22T06:40:45.130Z,20.64
2023-05-22T06:43:24.540Z,20.81
2023-05-22T06:45:58.548Z,20.95
2023-05-22T06:48:47.096Z,21.20
2023-05-22T06:51:29.589Z,21.46
2023-05-22T06:54:07.824Z,21.89
2023-05-22T06:56:39.869Z,22.22
2023-05-22T06:59:13.756Z,22.36
2023-05-22T07:02:06.647Z,22.35
2023-05-22T07:04:58.904Z,22.17
2023-05-22T07:07:51.182Z,21.90
2023-05-22T07:10:20.959Z,21.70
2023-05-22T07:12:53.185Z,21.54
2023-05-22T07:15:22.963Z,21.39
2023-05-22T07:17:56.502Z,21.32
2023-05-22T07:20:26.441Z,21.27
2023-05-22T07:23:14.582Z,21.09
2023-05-22T07:25:45.686Z,21.00
2023-05-22T07:28:17.539Z,20.95
2023-05-22T07:31:03.700Z,20.85
2023-05-22T07:33:33.665Z,20.74
2023-05-22T07:36:03.473Z,20.66
2023-05-22T07:38:36.454Z,20.65
2023-05-22T07:41:08.103Z,20.70
2023-05-22T07:43:38.127Z,20.76
2023-05-22T07:46:09.590Z,20.78
2023-05-22T07:48:47.176Z,20.74
2023-05-22T07:51:18.214Z,20.71
2023-05-22T07:53:54.148Z,20.62
2023-05-22T07:56:25.912Z,20.58
2023-05-22T07:58:56.019Z,20.50
2023-05-22T08:01:26.449Z,20.44
2023-05-22T08:03:56.663Z,20.36
2023-05-22T08:06:27.173Z,20.35
2023-05-22T08:09:00.257Z,20.34
2023-05-22T08:11:30.057Z,20.34
2023-05-22T08:13:59.811Z,20.26
2023-05-22T08:16:31.085Z,20.15
2023-05-22T08:19:01.050Z,20.09
2023-05-22T08:21:33.291Z,20.07
2023-05-22T08:24:06.079Z,20.05
2023-05-22T08:26:35.937Z,20.01
2023-05-22T08:29:05.704Z,19.97
2023-05-22T08:31:36.099Z,19.95
2023-05-22T08:34:07.426Z,19.95
2023-05-22T08:36:37.608Z,19.95
2023-05-22T08:39:10.313Z,19.90
2023-05-22T08:41:40.144Z,19.83
2023-05-22T08:44:11.135Z,19.79
2023-05-22T08:46:41.768Z,19.81
2023-05-22T08:49:12.169Z,19.85
2023-05-22T08:51:43.056Z,19.93
2023-05-22T08:54:15.550Z,20.00
2023-05-22T08:56:55.694Z,19.99
2023-05-22T08:59:27.004Z,19.92
2023-05-22T09:01:58.257Z,19.89
2023-05-22T09:04:30.077Z,19.88
2023-05-22T09:07:05.873Z,19.85
2023-05-22T09:09:39.762Z,19.86
2023-05-22T09:12:12.022Z,19.87
2023-05-22T09:14:42.390Z,19.89
2023-05-22T09:17:12.938Z,19.88
2023-05-22T09:19:46.539Z,19.86
2023-05-22T09:22:16.889Z,19.92
2023-05-22T09:24:49.769Z,20.01
2023-05-22T09:27:19.542Z,20.09
2023-05-22T09:29:51.458Z,20.17
2023-05-22T09:32:22.059Z,20.22
2023-05-22T09:34:52.302Z,20.37
2023-05-22T09:37:22.147Z,20.57
2023-05-22T09:39:56.608Z,20.84
2023-05-22T09:42:27.573Z,20.99
2023-05-22T09:44:57.371Z,21.11
2023-05-22T09:47:27.213Z,21.27
2023-05-22T09:50:00.726Z,21.47
2023-05-22T09:52:31.702Z,21.63
2023-05-22T09:55:06.097Z,21.79
2023-05-22T09:57:40.210Z,21.95
2023-05-22T10:00:13.397Z,22.03
2023-05-22T10:02:45.715Z,22.18
2023-05-22T10:05:21.828Z,22.40
2023-05-22T10:07:52.880Z,22.59
2023-05-22T10:10:30.858Z,22.78
2023-05-22T10:13:04.582Z,23.01
2023-05-22T10:15:34.195Z,23.27
2023-05-22T10:18:04.371Z,23.51
2023-05-22T10:20:34.160Z,23.69
2023-05-22T10:23:06.283Z,23.75
2023-05-22T10:25:39.272Z,23.81
2023-05-22T10:28:09.735Z,24.00
2023-05-22T10:30:45.152Z,24.21
2023-05-22T10:33:40.020Z,24.31
2023-05-22T10:36:12.450Z,24.47
2023-05-22T10:38:58.435Z,24.60
2023-05-22T10:41:31.281Z,24.56
2023-05-22T10:44:01.036Z,24.50
2023-05-22T10:46:35.435Z,24.48
2023-05-22T10:49:05.411Z,24.49
2023-05-22T10:51:35.430Z,24.55
2023-05-22T10:54:05.845Z,24.67
2023-05-22T10:56:38.796Z,24.80
2023-05-22T10:59:08.893Z,24.86
2023-05-22T11:01:38.918Z,25.03
2023-05-22T11:04:20.195Z,25.22
2023-05-22T11:07:05.572Z,25.39
2023-05-22T11:09:36.371Z,25.48
2023-05-22T11:12:22.612Z,25.48
2023-05-22T11:14:54.054Z,25.49
2023-05-22T11:17:26.050Z,25.41
2023-05-22T11:20:06.807Z,25.42
2023-05-22T11:22:39.947Z,25.35
2023-05-22T11:25:14.225Z,25.11
2023-05-22T11:27:47.502Z,24.91
2023-05-22T11:30:21.240Z,24.80
2023-05-22T11:32:51.011Z,24.82
2023-05-22T11:35:21.728Z,24.88
2023-05-22T11:37:54.501Z,24.84
2023-05-22T11:40:26.155Z,24.75
2023-05-22T11:42:59.049Z,24.66
2023-05-22T11:45:29.835Z,24.62
2023-05-22T11:47:59.745Z,24.56
2023-05-22T11:50:41.773Z,24.42
2023-05-22T11:53:12.747Z,24.29
2023-05-22T11:55:42.533Z,24.19
2023-05-22T11:58:15.300Z,24.09
2023-05-22T12:00:46.374Z,23.98
2023-05-22T12:03:17.719Z,23.87
2023-05-22T12:05:49.473Z,23.82
2023-05-22T12:08:19.397Z,23.86
2023-05-22T12:10:51.013Z,23.86
2023-05-22T12:13:32.809Z,23.86
2023-05-22T12:16:03.462Z,23.84
2023-05-22T12:18:39.147Z,23.86
2023-05-22T12:21:09.569Z,23.88
2023-05-22T12:23:39.322Z,23.92
2023-05-22T12:26:12.409Z,23.88
2023-05-22T12:28:44.741Z,23.81
2023-05-22T12:31:14.662Z,23.78
2023-05-22T12:33:44.457Z,23.77
2023-05-22T12:36:14.478Z,23.73
2023-05-22T12:38:44.392Z,23.66
2023-05-22T12:41:14.461Z,23.63
2023-05-22T12:43:46.832Z,23.66
2023-05-22T12:46:16.743Z,23.68
2023-05-22T12:48:46.494Z,23.71
2023-05-22T12:51:18.033Z,23.72
2023-05-22T12:53:49.073Z,23.70
2023-05-22T12:56:18.813Z,23.73
2023-05-22T12:58:51.225Z,23.76
2023-05-22T13:01:21.908Z,23.81
2023-05-22T13:03:52.003Z,23.86
2023-05-22T13:06:21.973Z,23.93
2023-05-22T13:08:51.792Z,23.99
2023-05-22T13:11:23.587Z,24.04
2023-05-22T13:13:55.910Z,24.07
2023-05-22T13:16:25.732Z,24.06
2023-05-22T13:18:55.513Z,24.08
2023-05-22T13:21:26.722Z,24.10
2023-05-22T13:23:56.861Z,24.13
2023-05-22T13:26:26.785Z,24.12
2023-05-22T13:28:59.636Z,24.11
2023-05-22T13:31:29.395Z,24.19
2023-05-22T13:34:01.566Z,24.26
2023-05-22T13:36:32.631Z,24.31
2023-05-22T13:39:02.592Z,24.30
2023-05-22T13:41:32.377Z,24.29
2023-05-22T13:44:04.767Z,24.27
2023-05-22T13:46:34.555Z,24.26
2023-05-22T13:49:04.333Z,24.19
2023-05-22T13:51:34.119Z,24.13
2023-05-22T13:54:03.909Z,24.16
2023-05-22T13:56:33.804Z,24.28
2023-05-22T13:59:09.181Z,24.45
2023-05-22T14:01:39.520Z,24.66
2023-05-22T14:04:09.452Z,24.79
2023-05-22T14:06:39.426Z,24.88
2023-05-22T14:09:09.747Z,24.92
2023-05-22T14:11:39.544Z,24.95
2023-05-22T14:14:11.897Z,24.99
2023-05-22T14:16:42.211Z,25.02
2023-05-22T14:19:12.479Z,25.06
2023-05-22T14:21:42.222Z,25.12
2023-05-22T14:24:11.973Z,25.29
2023-05-22T14:26:42.241Z,25.45
2023-05-22T14:29:14.916Z,25.57
2023-05-22T14:31:51.441Z,25.66
2023-05-22T14:34:21.855Z,25.68
2023-05-22T14:36:51.658Z,25.65
2023-05-22T14:39:21.415Z,25.66
2023-05-22T14:41:51.531Z,25.68
2023-05-22T14:44:24.113Z,25.73
2023-05-22T14:46:54.764Z,25.79
2023-05-22T14:49:24.566Z,25.87
2023-05-22T14:51:54.780Z,25.94
2023-05-22T14:54:24.512Z,25.91
2023-05-22T14:56:54.307Z,25.79
2023-05-22T14:59:26.665Z,25.68
2023-05-22T15:01:56.500Z,25.60
2023-05-22T15:04:26.416Z,25.44
2023-05-22T15:06:56.475Z,25.31
2023-05-22T15:09:26.418Z,25.16
2023-05-22T15:11:56.222Z,25.06
2023-05-22T15:14:28.523Z,25.04
2023-05-22T15:16:58.275Z,25.10
2023-05-22T15:19:28.178Z,25.26
2023-05-22T15:22:05.819Z,25.41
2023-05-22T15:24:47.133Z,25.42
2023-05-22T15:27:17.454Z,25.36
2023-05-22T15:29:49.772Z,25.25
2023-05-22T15:32:19.560Z,25.16
2023-05-22T15:34:49.397Z,25.12
2023-05-22T15:37:19.160Z,25.13
2023-05-22T15:39:49.046Z,25.15
2023-05-22T15:42:18.827Z,25.13
2023-05-22T15:44:51.212Z,25.11
2023-05-22T15:47:20.977Z,25.06
2023-05-22T15:49:50.751Z,25.04
2023-05-22T15:52:22.640Z,25.00
2023-05-22T15:54:52.663Z,24.93
2023-05-22T15:57:22.938Z,24.87
2023-05-22T15:59:55.318Z,24.81
2023-05-22T16:02:25.623Z,24.77
2023-05-22T16:04:55.458Z,24.74
2023-05-22T16:07:25.254Z,24.74
2023-05-22T16:09:55.009Z,24.75
2023-05-22T16:12:24.907Z,24.73
2023-05-22T16:15:00.377Z,24.69
2023-05-22T16:17:30.922Z,24.63
2023-05-22T16:20:00.700Z,24.60
2023-05-22T16:22:44.285Z,24.56
2023-05-22T16:25:18.651Z,24.45
2023-05-22T16:27:48.429Z,24.34
2023-05-22T16:30:21.456Z,24.24
2023-05-22T16:32:51.731Z,24.09
2023-05-22T16:35:22.372Z,23.97
2023-05-22T16:37:52.937Z,23.89
2023-05-22T16:40:22.819Z,23.89
2023-05-22T16:42:52.530Z,23.92
2023-05-22T16:45:25.029Z,23.88
2023-05-22T16:47:55.922Z,23.85
2023-05-22T16:50:26.035Z,23.78
2023-05-22T16:52:56.434Z,23.74
2023-05-22T16:55:26.212Z,23.77
2023-05-22T16:57:55.942Z,23.79
2023-05-22T17:00:28.503Z,23.79
2023-05-22T17:02:58.788Z,23.73
2023-05-22T17:05:28.739Z,23.67
2023-05-22T17:07:58.522Z,23.58
2023-05-22T17:10:28.298Z,23.51
2023-05-22T17:12:58.053Z,23.46
2023-05-22T17:15:30.439Z,23.42
2023-05-22T17:18:00.422Z,23.36
2023-05-22T17:20:30.198Z,23.31
2023-05-22T17:22:59.947Z,23.30
2023-05-22T17:25:29.719Z,23.35
2023-05-22T17:27:59.580Z,23.40
2023-05-22T17:30:32.138Z,23.41
2023-05-22T17:33:03.730Z,23.36
2023-05-22T17:35:33.805Z,23.27
2023-05-22T17:38:03.539Z,23.23
2023-05-22T17:40:43.855Z,23.23
2023-05-22T17:43:14.390Z,23.20
2023-05-22T17:45:50.265Z,23.11
2023-05-22T17:48:23.848Z,22.98
2023-05-22T17:50:53.467Z,22.82
2023-05-22T17:53:23.589Z,22.67
2023-05-22T17:55:54.249Z,22.50
2023-05-22T17:58:24.130Z,22.31
2023-05-22T18:00:56.525Z,22.13
2023-05-22T18:03:26.594Z,21.97
2023-05-22T18:05:56.439Z,21.78
2023-05-22T18:08:26.234Z,21.62
2023-05-22T18:10:57.337Z,21.43
2023-05-22T18:13:27.144Z,21.25
2023-05-22T18:16:00.205Z,21.06
2023-05-22T18:18:30.343Z,20.87
2023-05-22T18:21:01.159Z,20.70
2023-05-22T18:23:30.995Z,20.53
2023-05-22T18:26:01.264Z,20.39
2023-05-22T18:28:30.981Z,20.25
2023-05-22T18:31:04.284Z,20.14
2023-05-22T18:33:34.383Z,20.01
2023-05-22T18:36:04.549Z,19.90
2023-05-22T18:38:34.338Z,19.78
2023-05-22T18:41:04.138Z,19.69
2023-05-22T18:43:33.881Z,19.58
2023-05-22T18:46:06.772Z,19.48
2023-05-22T18:48:36.554Z,19.38
2023-05-22T18:51:06.606Z,19.29
2023-05-22T18:53:36.374Z,19.21
2023-05-22T18:56:06.233Z,19.13
2023-05-22T18:58:37.807Z,19.05
2023-05-22T19:01:10.735Z,18.97
2023-05-22T19:03:40.592Z,18.89
2023-05-22T19:06:10.316Z,18.83
2023-05-22T19:08:40.621Z,18.73
2023-05-22T19:11:10.414Z,18.66
2023-05-22T19:13:41.332Z,18.59
2023-05-22T19:16:13.788Z,18.53
2023-05-22T19:18:43.646Z,18.47
2023-05-22T19:21:13.406Z,18.43
2023-05-22T19:23:43.390Z,18.39
2023-05-22T19:26:13.265Z,18.38
2023-05-22T19:28:43.388Z,18.35
2023-05-22T19:31:16.646Z,18.35
2023-05-22T19:33:47.097Z,18.33
2023-05-22T19:36:16.871Z,18.31
2023-05-22T19:38:46.653Z,18.27
2023-05-22T19:41:17.305Z,18.24
2023-05-22T19:43:47.332Z,18.20
2023-05-22T19:46:19.812Z,18.16
2023-05-22T19:48:49.800Z,18.09
2023-05-22T19:51:19.667Z,18.04
2023-05-22T19:53:49.498Z,17.97
2023-05-22T19:56:19.300Z,17.88
2023-05-22T19:58:49.100Z,17.81
2023-05-22T20:01:21.545Z,17.72
2023-05-22T20:03:51.773Z,17.65
2023-05-22T20:06:21.961Z,17.58
2023-05-22T20:08:51.736Z,17.52
2023-05-22T20:11:21.803Z,17.48
2023-05-22T20:13:54.725Z,17.44
2023-05-22T20:16:29.543Z,17.40
2023-05-22T20:18:59.597Z,17.38
2023-05-22T20:21:29.349Z,17.31
2023-05-22T20:23:59.543Z,17.26
2023-05-22T20:26:29.559Z,17.20
2023-05-22T20:28:59.316Z,17.15
2023-05-22T20:31:31.874Z,17.11
2023-05-22T20:34:02.132Z,17.06
2023-05-22T20:36:32.655Z,16.99
2023-05-22T20:39:02.565Z,16.95
2023-05-22T20:41:32.313Z,16.89
2023-05-22T20:44:02.768Z,16.84
2023-05-22T20:46:35.597Z,16.79
2023-05-22T20:49:06.276Z,16.74
2023-05-22T20:51:37.111Z,16.69
2023-05-22T20:54:07.020Z,16.64
2023-05-22T20:56:37.827Z,16.60
2023-05-22T20:59:07.604Z,16.55
2023-05-22T21:01:40.048Z,16.50
2023-05-22T21:04:10.103Z,16.44
2023-05-22T21:06:40.045Z,16.40
2023-05-22T21:09:09.807Z,16.34
2023-05-22T21:11:39.572Z,16.28
2023-05-22T21:14:09.463Z,16.23
2023-05-22T21:16:41.873Z,16.19
2023-05-22T21:19:11.725Z,16.14
2023-05-22T21:21:41.955Z,16.10
2023-05-22T21:24:12.394Z,16.03
2023-05-22T21:26:42.173Z,15.96
2023-05-22T21:29:11.983Z,15.92
2023-05-22T21:31:44.358Z,15.87
2023-05-22T21:34:14.144Z,15.81
2023-05-22T21:36:43.934Z,15.76
2023-05-22T21:39:13.844Z,15.71
2023-05-22T21:41:43.662Z,15.67
2023-05-22T21:44:13.427Z,15.62
2023-05-22T21:46:46.067Z,15.57
2023-05-22T21:49:15.877Z,15.53
2023-05-22T21:51:45.679Z,15.48
2023-05-22T21:54:15.481Z,15.43
2023-05-22T21:56:45.239Z,15.38
2023-05-22T21:59:15.059Z,15.33
2023-05-22T22:01:47.510Z,15.26
2023-05-22T22:04:17.262Z,15.21
2023-05-22T22:06:47.030Z,15.14
2023-05-22T22:09:16.846Z,15.10
2023-05-22T22:11:48.685Z,15.05
2023-05-22T22:14:18.550Z,14.98
2023-05-22T22:16:54.371Z,14.96
2023-05-22T22:19:24.874Z,14.90
2023-05-22T22:21:55.172Z,14.86
2023-05-22T22:24:24.902Z,14.83
2023-05-22T22:26:55.129Z,14.80
2023-05-22T22:29:24.991Z,14.77
2023-05-22T22:31:57.354Z,14.75
2023-05-22T22:34:27.197Z,14.72
2023-05-22T22:36:57.547Z,14.70
2023-05-22T22:39:27.795Z,14.67
2023-05-22T22:42:02.034Z,14.64
2023-05-22T22:44:31.912Z,14.61
2023-05-22T22:47:04.792Z,14.59
2023-05-22T22:49:35.077Z,14.60
2023-05-22T22:52:04.812Z,14.60
2023-05-22T22:54:34.592Z,14.60
2023-05-22T22:57:04.680Z,14.58
2023-05-22T22:59:35.624Z,14.55
2023-05-22T23:02:08.472Z,14.53
2023-05-22T23:04:38.309Z,14.49
2023-05-22T23:07:08.557Z,14.47
2023-05-22T23:09:40.162Z,14.42
2023-05-22T23:12:11.257Z,14.37
2023-05-22T23:14:41.016Z,14.31
2023-05-22T23:17:13.379Z,14.26
2023-05-22T23:19:43.234Z,14.23
2023-05-22T23:22:13.196Z,14.26
2023-05-22T23:24:42.953Z,14.29
2023-05-22T23:27:12.736Z,14.29
2023-05-22T23:29:43.639Z,14.32
2023-05-22T23:32:16.056Z,14.39
2023-05-22T23:34:45.876Z,14.48
2023-05-22T23:37:15.623Z,14.55
2023-05-22T23:39:45.386Z,14.60
2023-05-22T23:42:15.721Z,14.59
2023-05-22T23:44:45.635Z,14.54
2023-05-22T23:47:18.994Z,14.47
2023-05-22T23:49:48.807Z,14.38
2023-05-22T23:52:18.670Z,14.29
2023-05-22T23:54:48.438Z,14.21
2023-05-22T23:57:18.259Z,14.15
2023-05-22T23:59:48.009Z,14.07
